sensor_id;sensor_type;location;lat;lon;timestamp;temperature;humidity
25352;DHT22;13304;48.464;8.712;2023-02-28T00:01:12;1.30;64.50
25352;DHT22;13304;48.464;8.712;2023-02-28T00:03:37;1.30;64.30
25352;DHT22;13304;48.464;8.712;2023-02-28T00:06:05;1.30;64.40
25352;DHT22;13304;48.464;8.712;2023-02-28T00:08:31;1.30;64.50
25352;DHT22;13304;48.464;8.712;2023-02-28T00:11:04;1.40;64.40
25352;DHT22;13304;48.464;8.712;2023-02-28T00:13:30;1.40;64.20
25352;DHT22;13304;48.464;8.712;2023-02-28T00:16:13;1.40;64.20
25352;DHT22;13304;48.464;8.712;2023-02-28T00:18:40;1.40;64.10
25352;DHT22;13304;48.464;8.712;2023-02-28T00:21:07;1.50;64.60
25352;DHT22;13304;48.464;8.712;2023-02-28T00:23:33;1.50;64.20
25352;DHT22;13304;48.464;8.712;2023-02-28T00:25:59;1.50;64.10
25352;DHT22;13304;48.464;8.712;2023-02-28T00:28:25;1.50;64.20
25352;DHT22;13304;48.464;8.712;2023-02-28T00:30:51;1.60;64.00
25352;DHT22;13304;48.464;8.712;2023-02-28T00:33:16;1.60;64.10
25352;DHT22;13304;48.464;8.712;2023-02-28T00:35:43;1.50;64.10
25352;DHT22;13304;48.464;8.712;2023-02-28T00:38:12;1.50;64.10
25352;DHT22;13304;48.464;8.712;2023-02-28T00:40:38;1.50;64.50
25352;DHT22;13304;48.464;8.712;2023-02-28T00:43:03;1.60;64.30
25352;DHT22;13304;48.464;8.712;2023-02-28T00:45:29;1.50;64.30
25352;DHT22;13304;48.464;8.712;2023-02-28T00:47:55;1.50;64.30
25352;DHT22;13304;48.464;8.712;2023-02-28T00:50:21;1.60;64.30
25352;DHT22;13304;48.464;8.712;2023-02-28T00:52:47;1.50;64.60
25352;DHT22;13304;48.464;8.712;2023-02-28T00:55:14;1.50;64.60
25352;DHT22;13304;48.464;8.712;2023-02-28T00:57:40;1.50;64.60
25352;DHT22;13304;48.464;8.712;2023-02-28T01:00:07;1.50;64.50
25352;DHT22;13304;48.464;8.712;2023-02-28T01:02:33;1.50;65.00
25352;DHT22;13304;48.464;8.712;2023-02-28T01:04:59;1.50;64.70
25352;DHT22;13304;48.464;8.712;2023-02-28T01:07:25;1.40;64.80
25352;DHT22;13304;48.464;8.712;2023-02-28T01:09:50;1.40;65.00
25352;DHT22;13304;48.464;8.712;2023-02-28T01:12:16;1.40;64.90
25352;DHT22;13304;48.464;8.712;2023-02-28T01:14:42;1.40;64.90
25352;DHT22;13304;48.464;8.712;2023-02-28T01:17:08;1.40;64.80
25352;DHT22;13304;48.464;8.712;2023-02-28T01:19:35;1.40;64.90
25352;DHT22;13304;48.464;8.712;2023-02-28T01:22:05;1.40;64.80
25352;DHT22;13304;48.464;8.712;2023-02-28T01:24:31;1.30;65.10
25352;DHT22;13304;48.464;8.712;2023-02-28T01:26:59;1.30;65.10
25352;DHT22;13304;48.464;8.712;2023-02-28T01:29:24;1.30;65.00
25352;DHT22;13304;48.464;8.712;2023-02-28T01:31:50;1.30;65.00
25352;DHT22;13304;48.464;8.712;2023-02-28T01:34:16;1.30;64.90
25352;DHT22;13304;48.464;8.712;2023-02-28T01:36:44;1.40;65.10
25352;DHT22;13304;48.464;8.712;2023-02-28T01:39:10;1.30;65.20
25352;DHT22;13304;48.464;8.712;2023-02-28T01:41:36;1.30;65.10
25352;DHT22;13304;48.464;8.712;2023-02-28T01:46:34;1.20;65.00
25352;DHT22;13304;48.464;8.712;2023-02-28T01:49:13;1.30;65.10
25352;DHT22;13304;48.464;8.712;2023-02-28T01:51:46;1.30;65.10
25352;DHT22;13304;48.464;8.712;2023-02-28T01:54:20;1.30;65.20
25352;DHT22;13304;48.464;8.712;2023-02-28T01:56:54;1.30;65.10
25352;DHT22;13304;48.464;8.712;2023-02-28T01:59:41;1.30;65.00
25352;DHT22;13304;48.464;8.712;2023-02-28T02:02:15;1.30;65.00
25352;DHT22;13304;48.464;8.712;2023-02-28T02:05:07;1.30;65.20
25352;DHT22;13304;48.464;8.712;2023-02-28T02:07:38;1.30;65.10
25352;DHT22;13304;48.464;8.712;2023-02-28T02:13:09;1.20;65.20
25352;DHT22;13304;48.464;8.712;2023-02-28T02:18:54;1.20;65.40
25352;DHT22;13304;48.464;8.712;2023-02-28T02:29:41;1.10;66.00
25352;DHT22;13304;48.464;8.712;2023-02-28T02:37:58;1.10;66.20
25352;DHT22;13304;48.464;8.712;2023-02-28T02:40:27;1.10;66.30
25352;DHT22;13304;48.464;8.712;2023-02-28T02:43:01;1.10;66.30
25352;DHT22;13304;48.464;8.712;2023-02-28T02:45:36;1.10;66.70
25352;DHT22;13304;48.464;8.712;2023-02-28T02:48:08;1.00;66.80
25352;DHT22;13304;48.464;8.712;2023-02-28T02:50:41;1.00;66.90
25352;DHT22;13304;48.464;8.712;2023-02-28T02:53:09;1.00;67.00
25352;DHT22;13304;48.464;8.712;2023-02-28T02:55:40;1.00;67.10
25352;DHT22;13304;48.464;8.712;2023-02-28T02:58:11;1.00;67.10
25352;DHT22;13304;48.464;8.712;2023-02-28T03:00:42;0.90;67.50
25352;DHT22;13304;48.464;8.712;2023-02-28T03:03:09;0.90;67.40
25352;DHT22;13304;48.464;8.712;2023-02-28T03:05:50;0.90;67.80
25352;DHT22;13304;48.464;8.712;2023-02-28T03:08:16;0.90;67.90
25352;DHT22;13304;48.464;8.712;2023-02-28T03:10:44;0.90;68.10
25352;DHT22;13304;48.464;8.712;2023-02-28T03:13:29;0.90;68.30
25352;DHT22;13304;48.464;8.712;2023-02-28T03:16:22;0.90;68.50
25352;DHT22;13304;48.464;8.712;2023-02-28T03:22:02;0.90;68.40
25352;DHT22;13304;48.464;8.712;2023-02-28T03:27:26;0.80;69.10
25352;DHT22;13304;48.464;8.712;2023-02-28T03:32:38;0.80;69.50
25352;DHT22;13304;48.464;8.712;2023-02-28T03:35:11;0.90;69.30
25352;DHT22;13304;48.464;8.712;2023-02-28T03:37:40;0.80;69.80
25352;DHT22;13304;48.464;8.712;2023-02-28T03:40:15;0.90;69.60
25352;DHT22;13304;48.464;8.712;2023-02-28T03:42:45;0.80;69.40
25352;DHT22;13304;48.464;8.712;2023-02-28T03:45:13;0.80;70.10
25352;DHT22;13304;48.464;8.712;2023-02-28T03:48:08;0.70;70.60
25352;DHT22;13304;48.464;8.712;2023-02-28T03:50:39;0.80;70.30
25352;DHT22;13304;48.464;8.712;2023-02-28T03:53:29;0.80;70.20
25352;DHT22;13304;48.464;8.712;2023-02-28T03:58:51;0.80;70.80
25352;DHT22;13304;48.464;8.712;2023-02-28T04:01:23;0.70;70.90
25352;DHT22;13304;48.464;8.712;2023-02-28T04:03:51;0.80;71.00
25352;DHT22;13304;48.464;8.712;2023-02-28T04:06:22;0.80;70.70
25352;DHT22;13304;48.464;8.712;2023-02-28T04:08:48;0.80;71.10
25352;DHT22;13304;48.464;8.712;2023-02-28T04:11:41;0.90;70.80
25352;DHT22;13304;48.464;8.712;2023-02-28T04:14:08;0.90;70.90
25352;DHT22;13304;48.464;8.712;2023-02-28T04:16:37;0.80;71.20
25352;DHT22;13304;48.464;8.712;2023-02-28T04:19:03;0.80;71.70
25352;DHT22;13304;48.464;8.712;2023-02-28T04:21:38;0.90;71.50
25352;DHT22;13304;48.464;8.712;2023-02-28T04:24:12;0.90;71.30
25352;DHT22;13304;48.464;8.712;2023-02-28T04:26:43;0.90;72.00
25352;DHT22;13304;48.464;8.712;2023-02-28T04:29:11;0.80;72.10
25352;DHT22;13304;48.464;8.712;2023-02-28T04:31:38;0.80;72.40
25352;DHT22;13304;48.464;8.712;2023-02-28T04:34:04;0.80;72.50
25352;DHT22;13304;48.464;8.712;2023-02-28T04:36:32;0.80;72.50
25352;DHT22;13304;48.464;8.712;2023-02-28T04:38:57;0.80;72.40
25352;DHT22;13304;48.464;8.712;2023-02-28T04:41:24;0.70;73.00
25352;DHT22;13304;48.464;8.712;2023-02-28T04:43:52;0.80;72.80
25352;DHT22;13304;48.464;8.712;2023-02-28T04:46:19;0.90;72.50
25352;DHT22;13304;48.464;8.712;2023-02-28T04:48:45;0.90;72.70
25352;DHT22;13304;48.464;8.712;2023-02-28T04:51:12;0.90;73.00
25352;DHT22;13304;48.464;8.712;2023-02-28T04:53:40;0.80;73.50
25352;DHT22;13304;48.464;8.712;2023-02-28T04:56:07;0.90;73.50
25352;DHT22;13304;48.464;8.712;2023-02-28T04:58:34;0.90;73.40
25352;DHT22;13304;48.464;8.712;2023-02-28T05:01:05;0.90;74.00
25352;DHT22;13304;48.464;8.712;2023-02-28T05:03:38;0.90;74.00
25352;DHT22;13304;48.464;8.712;2023-02-28T05:06:07;0.90;74.50
25352;DHT22;13304;48.464;8.712;2023-02-28T05:08:32;0.90;74.40
25352;DHT22;13304;48.464;8.712;2023-02-28T05:10:58;0.90;74.50
25352;DHT22;13304;48.464;8.712;2023-02-28T05:13:27;0.80;75.20
25352;DHT22;13304;48.464;8.712;2023-02-28T05:15:53;0.80;75.40
25352;DHT22;13304;48.464;8.712;2023-02-28T05:18:19;0.80;75.80
25352;DHT22;13304;48.464;8.712;2023-02-28T05:20:45;0.80;76.10
25352;DHT22;13304;48.464;8.712;2023-02-28T05:23:14;0.90;75.50
25352;DHT22;13304;48.464;8.712;2023-02-28T05:25:41;0.90;75.30
25352;DHT22;13304;48.464;8.712;2023-02-28T05:28:07;0.90;75.40
25352;DHT22;13304;48.464;8.712;2023-02-28T05:30:33;0.90;75.40
25352;DHT22;13304;48.464;8.712;2023-02-28T05:32:59;0.90;76.50
25352;DHT22;13304;48.464;8.712;2023-02-28T05:35:25;0.90;76.60
25352;DHT22;13304;48.464;8.712;2023-02-28T05:37:51;0.90;76.30
25352;DHT22;13304;48.464;8.712;2023-02-28T05:40:17;0.90;77.10
25352;DHT22;13304;48.464;8.712;2023-02-28T05:42:44;0.90;76.60
25352;DHT22;13304;48.464;8.712;2023-02-28T05:45:10;0.90;76.90
25352;DHT22;13304;48.464;8.712;2023-02-28T05:47:36;0.90;77.00
25352;DHT22;13304;48.464;8.712;2023-02-28T05:50:03;0.80;77.50
25352;DHT22;13304;48.464;8.712;2023-02-28T05:52:29;0.80;77.50
25352;DHT22;13304;48.464;8.712;2023-02-28T05:54:57;0.90;76.90
25352;DHT22;13304;48.464;8.712;2023-02-28T05:57:23;0.90;77.50
25352;DHT22;13304;48.464;8.712;2023-02-28T05:59:49;0.90;77.90
25352;DHT22;13304;48.464;8.712;2023-02-28T06:02:16;0.80;78.80
25352;DHT22;13304;48.464;8.712;2023-02-28T06:04:43;0.80;78.30
25352;DHT22;13304;48.464;8.712;2023-02-28T06:07:10;0.90;77.80
25352;DHT22;13304;48.464;8.712;2023-02-28T06:09:36;0.80;78.00
25352;DHT22;13304;48.464;8.712;2023-02-28T06:12:03;0.90;78.00
25352;DHT22;13304;48.464;8.712;2023-02-28T06:14:32;0.90;78.60
25352;DHT22;13304;48.464;8.712;2023-02-28T06:16:59;0.90;78.40
25352;DHT22;13304;48.464;8.712;2023-02-28T06:19:25;0.90;79.00
25352;DHT22;13304;48.464;8.712;2023-02-28T06:21:52;0.90;78.40
25352;DHT22;13304;48.464;8.712;2023-02-28T06:24:19;0.90;78.80
25352;DHT22;13304;48.464;8.712;2023-02-28T06:26:45;0.90;78.90
25352;DHT22;13304;48.464;8.712;2023-02-28T06:29:11;0.90;79.00
25352;DHT22;13304;48.464;8.712;2023-02-28T06:31:37;0.90;79.50
25352;DHT22;13304;48.464;8.712;2023-02-28T06:34:04;0.80;79.70
25352;DHT22;13304;48.464;8.712;2023-02-28T06:36:30;0.90;79.50
25352;DHT22;13304;48.464;8.712;2023-02-28T06:38:56;0.80;79.50
25352;DHT22;13304;48.464;8.712;2023-02-28T06:41:25;0.90;79.50
25352;DHT22;13304;48.464;8.712;2023-02-28T06:43:52;0.80;80.80
25352;DHT22;13304;48.464;8.712;2023-02-28T06:46:18;0.90;79.60
25352;DHT22;13304;48.464;8.712;2023-02-28T06:48:44;0.90;79.10
25352;DHT22;13304;48.464;8.712;2023-02-28T06:51:19;0.90;79.70
25352;DHT22;13304;48.464;8.712;2023-02-28T06:53:50;0.90;79.40
25352;DHT22;13304;48.464;8.712;2023-02-28T06:56:17;0.90;79.30
25352;DHT22;13304;48.464;8.712;2023-02-28T06:58:46;1.00;79.50
25352;DHT22;13304;48.464;8.712;2023-02-28T07:01:14;1.00;79.50
25352;DHT22;13304;48.464;8.712;2023-02-28T07:03:40;1.00;79.70
25352;DHT22;13304;48.464;8.712;2023-02-28T07:06:06;1.00;79.80
25352;DHT22;13304;48.464;8.712;2023-02-28T07:08:33;1.00;79.40
25352;DHT22;13304;48.464;8.712;2023-02-28T07:10:59;1.00;79.50
25352;DHT22;13304;48.464;8.712;2023-02-28T07:13:25;1.00;79.70
25352;DHT22;13304;48.464;8.712;2023-02-28T07:16:03;1.00;79.70
25352;DHT22;13304;48.464;8.712;2023-02-28T07:18:29;1.10;79.80
25352;DHT22;13304;48.464;8.712;2023-02-28T07:20:55;1.10;79.30
25352;DHT22;13304;48.464;8.712;2023-02-28T07:23:21;1.10;79.10
25352;DHT22;13304;48.464;8.712;2023-02-28T07:25:48;1.20;79.10
25352;DHT22;13304;48.464;8.712;2023-02-28T07:28:14;1.20;79.10
25352;DHT22;13304;48.464;8.712;2023-02-28T07:30:41;1.20;78.80
25352;DHT22;13304;48.464;8.712;2023-02-28T07:33:07;1.20;78.90
25352;DHT22;13304;48.464;8.712;2023-02-28T07:35:33;1.20;78.60
25352;DHT22;13304;48.464;8.712;2023-02-28T07:37:59;1.20;78.50
25352;DHT22;13304;48.464;8.712;2023-02-28T07:40:26;1.30;78.60
25352;DHT22;13304;48.464;8.712;2023-02-28T07:42:52;1.20;78.20
25352;DHT22;13304;48.464;8.712;2023-02-28T07:45:18;1.30;78.30
25352;DHT22;13304;48.464;8.712;2023-02-28T07:47:44;1.30;78.30
25352;DHT22;13304;48.464;8.712;2023-02-28T07:50:12;1.30;78.10
25352;DHT22;13304;48.464;8.712;2023-02-28T07:52:38;1.30;78.10
25352;DHT22;13304;48.464;8.712;2023-02-28T07:55:06;1.30;78.20
25352;DHT22;13304;48.464;8.712;2023-02-28T07:57:32;1.30;78.00
25352;DHT22;13304;48.464;8.712;2023-02-28T07:59:58;1.40;77.50
25352;DHT22;13304;48.464;8.712;2023-02-28T08:02:24;1.40;77.50
25352;DHT22;13304;48.464;8.712;2023-02-28T08:04:50;1.30;77.70
25352;DHT22;13304;48.464;8.712;2023-02-28T08:07:17;1.30;78.00
25352;DHT22;13304;48.464;8.712;2023-02-28T08:09:44;1.40;77.90
25352;DHT22;13304;48.464;8.712;2023-02-28T08:12:10;1.40;77.30
25352;DHT22;13304;48.464;8.712;2023-02-28T08:14:37;1.40;77.20
25352;DHT22;13304;48.464;8.712;2023-02-28T08:17:03;1.40;77.30
25352;DHT22;13304;48.464;8.712;2023-02-28T08:19:29;1.50;77.10
25352;DHT22;13304;48.464;8.712;2023-02-28T08:21:55;1.50;77.00
25352;DHT22;13304;48.464;8.712;2023-02-28T08:24:22;1.50;76.90
25352;DHT22;13304;48.464;8.712;2023-02-28T08:26:48;1.50;77.00
25352;DHT22;13304;48.464;8.712;2023-02-28T08:29:13;1.50;76.70
25352;DHT22;13304;48.464;8.712;2023-02-28T08:31:39;1.60;76.30
25352;DHT22;13304;48.464;8.712;2023-02-28T08:34:10;1.60;76.10
25352;DHT22;13304;48.464;8.712;2023-02-28T08:36:36;1.60;76.90
25352;DHT22;13304;48.464;8.712;2023-02-28T08:39:03;1.60;76.10
25352;DHT22;13304;48.464;8.712;2023-02-28T08:41:29;1.60;76.20
25352;DHT22;13304;48.464;8.712;2023-02-28T08:43:54;1.50;76.30
25352;DHT22;13304;48.464;8.712;2023-02-28T08:46:20;1.60;76.30
25352;DHT22;13304;48.464;8.712;2023-02-28T08:48:46;1.60;76.00
25352;DHT22;13304;48.464;8.712;2023-02-28T08:51:16;1.50;75.90
25352;DHT22;13304;48.464;8.712;2023-02-28T08:53:46;1.60;76.10
25352;DHT22;13304;48.464;8.712;2023-02-28T08:56:16;1.70;76.20
25352;DHT22;13304;48.464;8.712;2023-02-28T08:58:45;1.70;75.90
25352;DHT22;13304;48.464;8.712;2023-02-28T09:01:17;1.70;75.90
25352;DHT22;13304;48.464;8.712;2023-02-28T09:03:43;1.70;75.70
25352;DHT22;13304;48.464;8.712;2023-02-28T09:06:13;1.70;75.70
25352;DHT22;13304;48.464;8.712;2023-02-28T09:08:39;1.70;75.60
25352;DHT22;13304;48.464;8.712;2023-02-28T09:11:06;1.70;75.50
25352;DHT22;13304;48.464;8.712;2023-02-28T09:13:32;1.80;75.50
25352;DHT22;13304;48.464;8.712;2023-02-28T09:15:59;1.80;75.30
25352;DHT22;13304;48.464;8.712;2023-02-28T09:18:25;1.80;75.20
25352;DHT22;13304;48.464;8.712;2023-02-28T09:20:52;1.80;74.80
25352;DHT22;13304;48.464;8.712;2023-02-28T09:23:18;1.90;74.80
25352;DHT22;13304;48.464;8.712;2023-02-28T09:25:49;1.90;74.60
25352;DHT22;13304;48.464;8.712;2023-02-28T09:28:16;1.90;74.80
25352;DHT22;13304;48.464;8.712;2023-02-28T09:30:44;2.00;74.70
25352;DHT22;13304;48.464;8.712;2023-02-28T09:33:10;1.90;74.50
25352;DHT22;13304;48.464;8.712;2023-02-28T09:35:36;2.00;74.20
25352;DHT22;13304;48.464;8.712;2023-02-28T09:38:03;2.00;74.10
25352;DHT22;13304;48.464;8.712;2023-02-28T09:40:30;2.10;74.30
25352;DHT22;13304;48.464;8.712;2023-02-28T09:42:57;2.20;74.50
25352;DHT22;13304;48.464;8.712;2023-02-28T09:45:29;2.20;74.20
25352;DHT22;13304;48.464;8.712;2023-02-28T09:48:10;2.20;73.80
25352;DHT22;13304;48.464;8.712;2023-02-28T09:51:04;2.20;73.40
25352;DHT22;13304;48.464;8.712;2023-02-28T09:53:34;2.20;73.30
25352;DHT22;13304;48.464;8.712;2023-02-28T09:56:15;2.30;72.90
25352;DHT22;13304;48.464;8.712;2023-02-28T09:58:51;2.30;72.90
25352;DHT22;13304;48.464;8.712;2023-02-28T10:01:34;2.20;72.70
25352;DHT22;13304;48.464;8.712;2023-02-28T10:04:28;2.30;73.10
25352;DHT22;13304;48.464;8.712;2023-02-28T10:07:00;2.40;73.20
25352;DHT22;13304;48.464;8.712;2023-02-28T10:09:30;2.40;72.50
25352;DHT22;13304;48.464;8.712;2023-02-28T10:12:03;2.40;72.10
25352;DHT22;13304;48.464;8.712;2023-02-28T10:14:32;2.40;72.10
25352;DHT22;13304;48.464;8.712;2023-02-28T10:17:08;2.40;72.10
25352;DHT22;13304;48.464;8.712;2023-02-28T10:20:01;2.40;71.60
25352;DHT22;13304;48.464;8.712;2023-02-28T10:25:26;2.50;71.40
25352;DHT22;13304;48.464;8.712;2023-02-28T10:28:11;2.50;71.20
25352;DHT22;13304;48.464;8.712;2023-02-28T10:30:42;2.50;71.20
25352;DHT22;13304;48.464;8.712;2023-02-28T10:35:44;2.60;71.10
25352;DHT22;13304;48.464;8.712;2023-02-28T10:38:16;2.50;71.30
25352;DHT22;13304;48.464;8.712;2023-02-28T10:40:43;2.60;70.60
25352;DHT22;13304;48.464;8.712;2023-02-28T10:43:19;2.60;70.80
25352;DHT22;13304;48.464;8.712;2023-02-28T10:46:03;2.60;70.20
25352;DHT22;13304;48.464;8.712;2023-02-28T10:48:40;2.70;70.50
25352;DHT22;13304;48.464;8.712;2023-02-28T10:51:16;2.80;70.30
25352;DHT22;13304;48.464;8.712;2023-02-28T10:56:19;2.80;70.20
25352;DHT22;13304;48.464;8.712;2023-02-28T11:01:43;2.90;70.00
25352;DHT22;13304;48.464;8.712;2023-02-28T11:04:34;2.80;70.20
25352;DHT22;13304;48.464;8.712;2023-02-28T11:07:26;2.90;70.00
25352;DHT22;13304;48.464;8.712;2023-02-28T11:09:55;2.90;69.80
25352;DHT22;13304;48.464;8.712;2023-02-28T11:12:38;3.10;70.20
25352;DHT22;13304;48.464;8.712;2023-02-28T11:15:18;3.10;69.90
25352;DHT22;13304;48.464;8.712;2023-02-28T11:18:01;3.20;69.70
25352;DHT22;13304;48.464;8.712;2023-02-28T11:20:32;3.10;68.80
25352;DHT22;13304;48.464;8.712;2023-02-28T11:23:01;3.20;69.20
25352;DHT22;13304;48.464;8.712;2023-02-28T11:25:31;3.20;69.10
25352;DHT22;13304;48.464;8.712;2023-02-28T11:28:06;3.20;68.50
25352;DHT22;13304;48.464;8.712;2023-02-28T11:30:34;3.20;68.80
25352;DHT22;13304;48.464;8.712;2023-02-28T11:33:23;3.30;69.00
25352;DHT22;13304;48.464;8.712;2023-02-28T11:35:48;3.40;68.80
25352;DHT22;13304;48.464;8.712;2023-02-28T11:38:15;3.40;68.60
25352;DHT22;13304;48.464;8.712;2023-02-28T11:43:41;3.50;68.50
25352;DHT22;13304;48.464;8.712;2023-02-28T11:49:17;3.50;67.90
25352;DHT22;13304;48.464;8.712;2023-02-28T11:58:04;3.50;67.10
25352;DHT22;13304;48.464;8.712;2023-02-28T12:06:25;3.60;67.00
25352;DHT22;13304;48.464;8.712;2023-02-28T12:12:15;3.70;66.60
25352;DHT22;13304;48.464;8.712;2023-02-28T12:17:50;3.80;66.70
25352;DHT22;13304;48.464;8.712;2023-02-28T12:25:43;4.10;66.40
25352;DHT22;13304;48.464;8.712;2023-02-28T12:28:15;4.00;66.30
25352;DHT22;13304;48.464;8.712;2023-02-28T12:33:24;4.00;67.20
25352;DHT22;13304;48.464;8.712;2023-02-28T12:35:57;4.10;66.70
25352;DHT22;13304;48.464;8.712;2023-02-28T12:41:42;4.30;66.30
25352;DHT22;13304;48.464;8.712;2023-02-28T12:44:52;4.40;66.00
25352;DHT22;13304;48.464;8.712;2023-02-28T12:47:20;4.50;65.50
25352;DHT22;13304;48.464;8.712;2023-02-28T12:50:07;4.70;66.50
25352;DHT22;13304;48.464;8.712;2023-02-28T12:52:56;4.70;65.60
25352;DHT22;13304;48.464;8.712;2023-02-28T12:55:50;4.80;64.80
25352;DHT22;13304;48.464;8.712;2023-02-28T13:01:02;4.90;63.70
25352;DHT22;13304;48.464;8.712;2023-02-28T13:04:24;4.90;63.00
25352;DHT22;13304;48.464;8.712;2023-02-28T13:06:37;4.90;63.00
25352;DHT22;13304;48.464;8.712;2023-02-28T13:09:14;4.90;62.50
25352;DHT22;13304;48.464;8.712;2023-02-28T13:11:42;5.00;63.10
25352;DHT22;13304;48.464;8.712;2023-02-28T13:17:10;4.90;61.80
25352;DHT22;13304;48.464;8.712;2023-02-28T13:20:00;5.00;62.50
25352;DHT22;13304;48.464;8.712;2023-02-28T13:22:37;4.90;61.70
25352;DHT22;13304;48.464;8.712;2023-02-28T13:31:15;4.70;62.40
25352;DHT22;13304;48.464;8.712;2023-02-28T13:38:46;4.50;63.00
25352;DHT22;13304;48.464;8.712;2023-02-28T13:44:21;4.50;63.60
25352;DHT22;13304;48.464;8.712;2023-02-28T13:54:57;4.50;64.50
25352;DHT22;13304;48.464;8.712;2023-02-28T14:02:48;4.60;64.00
25352;DHT22;13304;48.464;8.712;2023-02-28T14:05:21;4.60;64.50
25352;DHT22;13304;48.464;8.712;2023-02-28T14:07:54;4.70;64.60
25352;DHT22;13304;48.464;8.712;2023-02-28T14:10:34;4.70;64.50
25352;DHT22;13304;48.464;8.712;2023-02-28T14:16:03;4.70;64.40
25352;DHT22;13304;48.464;8.712;2023-02-28T14:18:32;4.80;63.60
25352;DHT22;13304;48.464;8.712;2023-02-28T14:23:45;4.90;63.40
25352;DHT22;13304;48.464;8.712;2023-02-28T14:26:45;4.90;63.20
25352;DHT22;13304;48.464;8.712;2023-02-28T14:37:43;5.10;62.80
25352;DHT22;13304;48.464;8.712;2023-02-28T14:40:17;5.10;63.30
25352;DHT22;13304;48.464;8.712;2023-02-28T14:42:57;5.10;62.30
25352;DHT22;13304;48.464;8.712;2023-02-28T14:45:23;5.10;61.80
25352;DHT22;13304;48.464;8.712;2023-02-28T14:47:50;5.10;62.00
25352;DHT22;13304;48.464;8.712;2023-02-28T14:50:32;5.20;62.30
25352;DHT22;13304;48.464;8.712;2023-02-28T14:53:20;5.20;62.00
25352;DHT22;13304;48.464;8.712;2023-02-28T14:55:49;5.20;62.00
25352;DHT22;13304;48.464;8.712;2023-02-28T14:58:50;5.10;61.70
25352;DHT22;13304;48.464;8.712;2023-02-28T15:01:20;5.10;62.00
25352;DHT22;13304;48.464;8.712;2023-02-28T15:03:47;5.20;62.10
25352;DHT22;13304;48.464;8.712;2023-02-28T15:06:16;5.20;62.30
25352;DHT22;13304;48.464;8.712;2023-02-28T15:08:44;5.20;62.80
25352;DHT22;13304;48.464;8.712;2023-02-28T15:11:13;5.30;62.90
25352;DHT22;13304;48.464;8.712;2023-02-28T15:13:43;5.20;62.20
25352;DHT22;13304;48.464;8.712;2023-02-28T15:21:52;5.30;62.30
25352;DHT22;13304;48.464;8.712;2023-02-28T15:24:44;5.30;62.00
25352;DHT22;13304;48.464;8.712;2023-02-28T15:27:20;5.30;61.70
25352;DHT22;13304;48.464;8.712;2023-02-28T15:29:55;5.30;61.70
25352;DHT22;13304;48.464;8.712;2023-02-28T15:32:28;5.30;61.70
25352;DHT22;13304;48.464;8.712;2023-02-28T15:34:55;5.30;61.90
25352;DHT22;13304;48.464;8.712;2023-02-28T15:40:23;5.40;61.90
25352;DHT22;13304;48.464;8.712;2023-02-28T15:45:40;5.40;62.20
25352;DHT22;13304;48.464;8.712;2023-02-28T15:50:40;5.50;62.10
25352;DHT22;13304;48.464;8.712;2023-02-28T15:53:16;5.50;62.20
25352;DHT22;13304;48.464;8.712;2023-02-28T15:55:43;5.50;62.10
25352;DHT22;13304;48.464;8.712;2023-02-28T15:58:11;5.50;61.90
25352;DHT22;13304;48.464;8.712;2023-02-28T16:00:38;5.60;61.50
25352;DHT22;13304;48.464;8.712;2023-02-28T16:03:24;5.50;61.20
25352;DHT22;13304;48.464;8.712;2023-02-28T16:08:52;5.50;61.30
25352;DHT22;13304;48.464;8.712;2023-02-28T16:11:22;5.50;61.30
25352;DHT22;13304;48.464;8.712;2023-02-28T16:13:48;5.50;61.40
25352;DHT22;13304;48.464;8.712;2023-02-28T16:16:18;5.50;61.20
25352;DHT22;13304;48.464;8.712;2023-02-28T16:18:44;5.50;61.60
25352;DHT22;13304;48.464;8.712;2023-02-28T16:21:10;5.50;61.50
25352;DHT22;13304;48.464;8.712;2023-02-28T16:23:36;5.50;61.50
25352;DHT22;13304;48.464;8.712;2023-02-28T16:26:03;5.50;61.80
25352;DHT22;13304;48.464;8.712;2023-02-28T16:28:33;5.50;62.60
25352;DHT22;13304;48.464;8.712;2023-02-28T16:31:00;5.50;61.80
25352;DHT22;13304;48.464;8.712;2023-02-28T16:33:31;5.50;61.50
25352;DHT22;13304;48.464;8.712;2023-02-28T16:35:57;5.50;61.40
25352;DHT22;13304;48.464;8.712;2023-02-28T16:38:23;5.50;61.50
25352;DHT22;13304;48.464;8.712;2023-02-28T16:40:51;5.50;61.60
25352;DHT22;13304;48.464;8.712;2023-02-28T16:43:20;5.40;61.60
25352;DHT22;13304;48.464;8.712;2023-02-28T16:45:48;5.40;61.80
25352;DHT22;13304;48.464;8.712;2023-02-28T16:48:15;5.40;61.70
25352;DHT22;13304;48.464;8.712;2023-02-28T16:50:42;5.40;61.90
25352;DHT22;13304;48.464;8.712;2023-02-28T16:53:08;5.40;61.90
25352;DHT22;13304;48.464;8.712;2023-02-28T16:55:35;5.40;62.00
25352;DHT22;13304;48.464;8.712;2023-02-28T16:58:02;5.30;62.00
25352;DHT22;13304;48.464;8.712;2023-02-28T17:00:30;5.30;62.00
25352;DHT22;13304;48.464;8.712;2023-02-28T17:02:57;5.30;62.10
25352;DHT22;13304;48.464;8.712;2023-02-28T17:05:23;5.30;62.30
25352;DHT22;13304;48.464;8.712;2023-02-28T17:07:49;5.20;62.30
25352;DHT22;13304;48.464;8.712;2023-02-28T17:10:19;5.20;62.30
25352;DHT22;13304;48.464;8.712;2023-02-28T17:12:46;5.20;62.30
25352;DHT22;13304;48.464;8.712;2023-02-28T17:15:14;5.20;62.50
25352;DHT22;13304;48.464;8.712;2023-02-28T17:17:40;5.10;62.40
25352;DHT22;13304;48.464;8.712;2023-02-28T17:20:11;5.10;62.60
25352;DHT22;13304;48.464;8.712;2023-02-28T17:22:37;5.00;62.70
25352;DHT22;13304;48.464;8.712;2023-02-28T17:25:03;5.00;62.80
25352;DHT22;13304;48.464;8.712;2023-02-28T17:27:29;4.90;62.90
25352;DHT22;13304;48.464;8.712;2023-02-28T17:29:54;4.90;63.00
25352;DHT22;13304;48.464;8.712;2023-02-28T17:32:20;4.90;63.10
25352;DHT22;13304;48.464;8.712;2023-02-28T17:34:46;4.80;63.20
25352;DHT22;13304;48.464;8.712;2023-02-28T17:37:12;4.80;63.50
25352;DHT22;13304;48.464;8.712;2023-02-28T17:39:37;4.80;63.50
25352;DHT22;13304;48.464;8.712;2023-02-28T17:42:03;4.80;63.50
25352;DHT22;13304;48.464;8.712;2023-02-28T17:44:29;4.70;63.80
25352;DHT22;13304;48.464;8.712;2023-02-28T17:46:55;4.70;63.90
25352;DHT22;13304;48.464;8.712;2023-02-28T17:49:22;4.70;64.10
25352;DHT22;13304;48.464;8.712;2023-02-28T17:51:48;4.60;64.00
25352;DHT22;13304;48.464;8.712;2023-02-28T17:54:14;4.60;64.00
25352;DHT22;13304;48.464;8.712;2023-02-28T17:56:40;4.60;64.20
25352;DHT22;13304;48.464;8.712;2023-02-28T17:59:09;4.50;64.40
25352;DHT22;13304;48.464;8.712;2023-02-28T18:01:35;4.50;64.40
25352;DHT22;13304;48.464;8.712;2023-02-28T18:04:01;4.50;64.50
25352;DHT22;13304;48.464;8.712;2023-02-28T18:09:22;4.40;64.80
25352;DHT22;13304;48.464;8.712;2023-02-28T18:11:50;4.30;64.90
25352;DHT22;13304;48.464;8.712;2023-02-28T18:14:17;4.30;65.00
25352;DHT22;13304;48.464;8.712;2023-02-28T18:16:43;4.30;65.20
25352;DHT22;13304;48.464;8.712;2023-02-28T18:19:09;4.20;65.30
25352;DHT22;13304;48.464;8.712;2023-02-28T18:21:50;4.20;65.40
25352;DHT22;13304;48.464;8.712;2023-02-28T18:24:18;4.10;65.40
25352;DHT22;13304;48.464;8.712;2023-02-28T18:26:44;4.20;65.40
25352;DHT22;13304;48.464;8.712;2023-02-28T18:29:18;4.20;65.50
25352;DHT22;13304;48.464;8.712;2023-02-28T18:31:44;4.10;65.70